Flight Track Log - Related Links

Times and Time Zones

All times are in EDT time to prevent confusion due to time zone crossing. See the EGF3418 flight status page for this flight to view local times or setup timezone preferences in your user account.

Time Position Orientation Groundspeed Altitude Reporting Facility
EDT Latitude Longitude Course Direction KTS MPH feet Rate Location/Type
Sat 04:04:00 PM 32.8667 -97.0500 308° West 180 207 2,400  Level Dallas / Fort Worth TRACON
Sat 04:05:00 PM 32.7597 -97.1237 220° Southwest  Level FlightAware Approximate
Sat 04:05:06 PM 32.8000 -97.0667 192° South 205 236 6,000  Level Dallas / Fort Worth TRACON
Sat 04:06:00 PM 32.7643 -97.2192 281° West  Level FlightAware Approximate
Sat 04:06:06 PM 32.7667 -97.1333 239° Southwest 266 306 8,000  Level Dallas / Fort Worth TRACON
Sat 04:07:00 PM 32.8109 -97.3041 307° West  Level FlightAware Approximate
Sat 04:07:15 PM 32.7686 -97.2281 271° West 270 311 10,300  Level Fort Worth Center
Sat 04:08:00 PM 32.8629 -97.3859 308° West  Level FlightAware Approximate
Sat 04:08:15 PM 32.8186 -97.3194 303° West 313 360 11,500  Level Fort Worth Center
Sat 04:09:00 PM 32.9165 -97.4664 308° West  Level FlightAware Approximate
Sat 04:09:15 PM 32.8792 -97.4086 309° West 333 383 12,800  Level Fort Worth Center
Sat 04:10:15 PM 32.9397 -97.5050 307° West 353 406 14,400 1,550 Climbing Fort Worth Center
Sat 04:11:15 PM 32.9961 -97.5867 309° West 353 406 15,900 1,450 Climbing Fort Worth Center
Sat 04:12:15 PM 33.0544 -97.6786 307° West 353 406 17,300 1,400 Climbing Fort Worth Center
Sat 04:13:15 PM 33.1083 -97.7881 300° West 353 406 18,700 1,300 Climbing Fort Worth Center
Sat 04:14:15 PM 33.1372 -97.8847 290° West 347 399 19,900 1,350 Climbing Fort Worth Center
Sat 04:15:15 PM 33.1764 -98.0067 291° West 347 399 21,400 1,400 Climbing Fort Worth Center
Sat 04:16:15 PM 33.2092 -98.1111 291° West 347 399 22,700 1,350 Climbing Fort Worth Center
Sat 04:17:15 PM 33.2461 -98.2233 292° West 352 405 24,100 1,400 Climbing Fort Worth Center
Sat 04:18:15 PM 33.2767 -98.3253 290° West 347 399 25,500 1,400 Climbing Fort Worth Center
Sat 04:19:15 PM 33.3072 -98.4275 290° West 335 386 26,900 1,200 Climbing Fort Worth Center
Sat 04:20:15 PM 33.3378 -98.5297 290° West 330 380 27,900 1,050 Climbing Fort Worth Center
Sat 04:21:15 PM 33.3742 -98.6347 293° West 330 380 29,000 1,100 Climbing Fort Worth Center
Sat 04:22:15 PM 33.4025 -98.7347 289° West 335 386 30,100 1,100 Climbing Fort Worth Center
Sat 04:23:15 PM 33.4347 -98.8422 290° West 335 386 31,200 950 Climbing Fort Worth Center
Sat 04:24:15 PM 33.4689 -98.9475 291° West 335 386 32,000 400 Climbing Fort Worth Center
Sat 04:25:15 PM 33.5261 -99.0481 304° West 346 398 32,000  Level Fort Worth Center
Sat 04:26:15 PM 33.5894 -99.1439 308° West 360 414 32,000  Level Fort Worth Center
Sat 04:27:15 PM 33.6550 -99.2425 309° West 373 429 32,000  Level Fort Worth Center
Sat 04:28:15 PM 33.7181 -99.3364 309° West 373 429 32,000  Level Fort Worth Center
Sat 04:29:15 PM 33.7792 -99.4328 307° West 368 423 32,000  Level Fort Worth Center
Sat 04:30:15 PM 33.8444 -99.5292 309° West 373 429 32,000  Level Fort Worth Center
Sat 04:31:15 PM 33.9075 -99.6283 307° West 373 429 32,000  Level Fort Worth Center
Sat 04:32:15 PM 33.9725 -99.7250 309° West 373 429 32,000  Level Fort Worth Center
Sat 04:33:15 PM 34.0353 -99.8244 307° West 373 429 32,000  Level Fort Worth Center
Sat 04:34:15 PM 34.0981 -99.9267 307° West 373 429 32,000  Level Fort Worth Center
Sat 04:36:28 PM 34.2367 -100.1369 309° West 375 432 32,000  Level Albuquerque Center
Sat 04:37:30 PM 34.3008 -100.2361 308° West 375 432 32,000  Level Albuquerque Center
Sat 04:38:32 PM 34.3650 -100.3383 307° West 379 436 32,000  Level Albuquerque Center
Sat 04:39:33 PM 34.4294 -100.4383 308° West 379 436 32,000  Level Albuquerque Center
Sat 04:40:35 PM 34.4939 -100.5400 308° West 380 437 32,000 -774 Level Albuquerque Center
Sat 04:41:37 PM 34.5708 -100.6600 308° West 378 435 30,400 -2,371 Descending Albuquerque Center
Sat 04:42:39 PM 34.6331 -100.7606 307° West 374 430 27,100 -3,317 Descending Albuquerque Center
Sat 04:43:40 PM 34.6969 -100.8631 307° West 379 436 23,600 -3,366 Descending Albuquerque Center
Sat 04:44:42 PM 34.7614 -100.9656 307° West 381 438 20,200 -3,339 Descending Albuquerque Center
Sat 04:45:44 PM 34.8228 -101.0650 307° West 376 433 16,700 -3,366 Descending Albuquerque Center
Sat 04:46:45 PM 34.8836 -101.1547 310° West 360 414 13,300 -2,878 Descending Albuquerque Center
Sat 04:47:47 PM 34.9517 -101.2392 315° West 351 404 10,800 -2,032 Descending Albuquerque Center
Sat 04:48:49 PM 35.0197 -101.3264 314° West 316 364 9,100 -1,597 Descending Albuquerque Center
Sat 04:49:51 PM 35.0744 -101.3956 314° West 297 342 7,500 -1,317 Descending Albuquerque Center
Sat 04:50:52 PM 35.1256 -101.4631 313° West 283 326 6,400 -829 Descending Albuquerque Center
Sat 04:51:54 PM 35.1739 -101.5322 311° West 275 316 5,800 -532 Descending Albuquerque Center
Sat 04:52:56 PM 35.2200 -101.5983 311° West 267 307 5,300 -585 Descending Albuquerque Center
Sat 04:53:57 PM 35.2503 -101.6503 306° West 223 257 4,600 -780 Descending Albuquerque Center
Sat 04:54:59 PM 35.2300 -101.7019 244° Southwest 181 208 3,700 -871 Descending Albuquerque Center
Sat 04:56:00 PM 35.2167 -101.7000 321° Northwest  Level FlightAware Approximate

Login

Don't have an account? Register now (free) for customized features, flight alerts, and more!